Time;durP1;ratioP1;P1;durP2;ratioP2;P2;SDS_P1;SDS_P2;PMS_P1;PMS_P2;Temp;Humidity;BMP_temperature;BMP_pressure;BME280_temperature;BME280_humidity;BME280_pressure;Samples;Min_cycle;Max_cycle;Signal;HPM_P1;HPM_P2
2022/08/21 00:01:30;;;;;;;11.10;5.50;;;;;;;;;;5018870;28;20041;-60
2022/08/21 00:03:57;;;;;;;11.57;4.70;;;;;;;;;;5054019;28;20045;-60
2022/08/21 00:06:23;;;;;;;9.30;4.70;;;;;;;;;;5036192;28;20072;-60
2022/08/21 00:08:50;;;;;;;9.20;4.50;;;;;;;;;;5035304;28;20049;-59
2022/08/21 00:11:16;;;;;;;9.77;4.90;;;;;;;;;;5054165;28;20060;-60
2022/08/21 00:13:43;;;;;;;8.70;4.88;;;;;;;;;;5053764;28;20056;-60
2022/08/21 00:16:09;;;;;;;9.98;5.15;;;;;;;;;;5035387;28;20040;-60
2022/08/21 00:18:35;;;;;;;10.02;5.60;;;;;;;;;;5053600;28;20478;-60
2022/08/21 00:21:01;;;;;;;8.98;4.95;;;;;;;;;;5053740;28;20039;-59
2022/08/21 00:23:27;;;;;;;11.65;5.15;;;;;;;;;;5034848;28;20044;-60
2022/08/21 00:25:54;;;;;;;8.60;4.90;;;;;;;;;;5053425;28;20458;-60
2022/08/21 00:28:20;;;;;;;9.40;5.63;;;;;;;;;;5035970;28;20548;-60
2022/08/21 00:30:46;;;;;;;7.10;4.32;;;;;;;;;;5052355;28;20044;-60
2022/08/21 00:33:12;;;;;;;10.65;5.13;;;;;;;;;;5035910;28;20083;-60
2022/08/21 00:35:40;;;;;;;11.60;5.47;;;;;;;;;;5035506;28;20040;-60
2022/08/21 00:38:07;;;;;;;9.48;4.97;;;;;;;;;;5052688;28;20425;-60
2022/08/21 00:40:43;;;;;;;10.75;4.93;;;;;;;;;;5053310;28;20541;-59
2022/08/21 00:43:10;;;;;;;9.93;5.00;;;;;;;;;;5052613;28;20044;-60
2022/08/21 00:45:36;;;;;;;9.90;5.00;;;;;;;;;;5053383;28;20044;-60
2022/08/21 00:48:03;;;;;;;10.77;4.82;;;;;;;;;;5053194;28;20098;-59
2022/08/21 00:50:31;;;;;;;8.93;5.07;;;;;;;;;;5052310;28;20377;-60
2022/08/21 00:52:58;;;;;;;9.23;5.40;;;;;;;;;;5035432;28;20493;-59
2022/08/21 00:55:24;;;;;;;9.40;5.10;;;;;;;;;;5053016;28;20397;-59
2022/08/21 00:57:53;;;;;;;10.55;4.45;;;;;;;;;;5052122;28;20033;-60
2022/08/21 01:00:21;;;;;;;9.20;4.43;;;;;;;;;;5035506;28;20079;-60
2022/08/21 01:02:47;;;;;;;12.45;5.05;;;;;;;;;;5052801;28;20041;-59
2022/08/21 01:05:13;;;;;;;9.55;4.78;;;;;;;;;;5052538;28;20116;-60
2022/08/21 01:07:40;;;;;;;7.80;4.32;;;;;;;;;;5052760;28;20672;-59
2022/08/21 01:10:07;;;;;;;9.45;4.80;;;;;;;;;;5034861;28;20044;-60
2022/08/21 01:12:34;;;;;;;8.70;5.22;;;;;;;;;;5033781;28;20576;-60
2022/08/21 01:15:01;;;;;;;9.40;4.63;;;;;;;;;;5018683;28;20555;-60
2022/08/21 01:17:27;;;;;;;11.48;5.38;;;;;;;;;;5052471;28;20040;-60
2022/08/21 01:19:57;;;;;;;10.38;5.68;;;;;;;;;;5051932;28;20037;-60
2022/08/21 01:22:23;;;;;;;8.73;5.18;;;;;;;;;;5052405;28;20041;-59
2022/08/21 01:24:49;;;;;;;9.63;5.15;;;;;;;;;;5034546;28;20076;-59
2022/08/21 01:27:16;;;;;;;10.55;5.10;;;;;;;;;;5051890;28;20063;-59
2022/08/21 01:29:44;;;;;;;8.98;5.30;;;;;;;;;;5052148;28;20336;-60
2022/08/21 01:32:15;;;;;;;9.02;5.55;;;;;;;;;;5052460;28;20497;-59
2022/08/21 01:34:44;;;;;;;12.50;5.97;;;;;;;;;;5034407;28;20076;-59
2022/08/21 01:37:11;;;;;;;10.63;5.10;;;;;;;;;;5034594;28;20544;-59
2022/08/21 01:39:37;;;;;;;6.97;4.47;;;;;;;;;;5051622;28;20032;-59
2022/08/21 01:42:03;;;;;;;9.55;5.10;;;;;;;;;;5052337;28;20044;-60
2022/08/21 01:44:29;;;;;;;10.25;6.03;;;;;;;;;;5017903;28;20047;-59
2022/08/21 01:46:56;;;;;;;11.43;5.35;;;;;;;;;;5051223;28;20120;-59
2022/08/21 01:49:22;;;;;;;9.15;5.95;;;;;;;;;;5034348;28;20524;-59
2022/08/21 01:51:48;;;;;;;11.85;6.30;;;;;;;;;;5052045;28;20044;-60
2022/08/21 01:54:14;;;;;;;10.27;6.10;;;;;;;;;;5051679;28;20063;-60
2022/08/21 01:56:42;;;;;;;8.57;5.53;;;;;;;;;;5034399;28;20036;-60
2022/08/21 01:59:09;;;;;;;10.48;6.40;;;;;;;;;;5034334;28;20478;-60
2022/08/21 02:01:35;;;;;;;9.82;5.50;;;;;;;;;;5051164;28;20041;-60
2022/08/21 02:04:01;;;;;;;12.98;6.60;;;;;;;;;;5034021;28;20051;-59
2022/08/21 02:06:27;;;;;;;10.63;5.65;;;;;;;;;;5051652;28;20068;-60
2022/08/21 02:08:53;;;;;;;13.05;6.85;;;;;;;;;;5051380;28;20041;-59
2022/08/21 02:11:20;;;;;;;11.73;7.10;;;;;;;;;;5052189;28;20119;-60
2022/08/21 02:13:46;;;;;;;12.15;6.18;;;;;;;;;;5051389;28;20041;-60
2022/08/21 02:16:12;;;;;;;13.30;6.72;;;;;;;;;;5033405;28;20505;-59
2022/08/21 02:18:38;;;;;;;7.78;5.40;;;;;;;;;;5051708;28;20258;-59
2022/08/21 02:21:05;;;;;;;10.82;6.22;;;;;;;;;;5051679;28;20045;-59
2022/08/21 02:23:31;;;;;;;10.35;6.07;;;;;;;;;;5051044;28;20048;-60
2022/08/21 02:25:58;;;;;;;12.75;6.43;;;;;;;;;;5051641;28;20488;-60
2022/08/21 02:28:25;;;;;;;13.98;6.80;;;;;;;;;;5034098;28;20048;-59
2022/08/21 02:30:51;;;;;;;11.63;6.43;;;;;;;;;;5051006;28;20045;-59
2022/08/21 02:33:18;;;;;;;10.45;6.35;;;;;;;;;;5051887;28;20056;-60
2022/08/21 02:35:45;;;;;;;10.07;6.50;;;;;;;;;;5050598;28;20394;-59
2022/08/21 02:38:13;;;;;;;11.43;6.35;;;;;;;;;;5034255;28;20056;-60
2022/08/21 02:40:41;;;;;;;9.63;6.13;;;;;;;;;;5017334;28;20041;-59
2022/08/21 02:43:08;;;;;;;12.00;6.57;;;;;;;;;;5035814;28;20132;-59
2022/08/21 02:45:34;;;;;;;13.93;6.47;;;;;;;;;;5021098;28;20048;-60
2022/08/21 02:48:03;;;;;;;16.23;6.97;;;;;;;;;;5020927;28;20040;-60
2022/08/21 02:50:31;;;;;;;11.90;6.03;;;;;;;;;;5036845;28;20056;-59
2022/08/21 02:52:58;;;;;;;14.15;6.40;;;;;;;;;;5055474;28;20049;-60
2022/08/21 02:55:26;;;;;;;13.35;6.63;;;;;;;;;;5037492;28;20486;-60
2022/08/21 02:57:53;;;;;;;11.80;6.63;;;;;;;;;;5054483;28;20037;-60
2022/08/21 03:00:20;;;;;;;11.45;6.45;;;;;;;;;;5055510;28;20040;-59
2022/08/21 03:02:46;;;;;;;11.27;5.93;;;;;;;;;;5054822;28;20063;-60
2022/08/21 03:05:14;;;;;;;8.85;6.15;;;;;;;;;;5036858;28;20036;-60
2022/08/21 03:07:41;;;;;;;10.55;6.05;;;;;;;;;;5055309;28;20454;-59
2022/08/21 03:10:07;;;;;;;18.00;7.78;;;;;;;;;;5037144;28;20083;-60
2022/08/21 03:12:35;;;;;;;12.07;5.82;;;;;;;;;;5054300;28;20041;-60
2022/08/21 03:15:01;;;;;;;13.00;6.57;;;;;;;;;;5054732;28;20051;-59
2022/08/21 03:17:27;;;;;;;12.23;6.85;;;;;;;;;;5054863;28;20072;-59
2022/08/21 03:19:53;;;;;;;9.80;6.15;;;;;;;;;;5054308;28;20056;-60
2022/08/21 03:22:19;;;;;;;11.50;6.25;;;;;;;;;;5055021;28;20497;-60
2022/08/21 03:24:45;;;;;;;13.52;6.30;;;;;;;;;;5019359;28;20041;-60
2022/08/21 03:27:12;;;;;;;11.25;6.45;;;;;;;;;;5054808;28;20497;-59
2022/08/21 03:29:39;;;;;;;12.00;7.32;;;;;;;;;;5054431;28;20052;-59
2022/08/21 03:32:05;;;;;;;12.32;6.78;;;;;;;;;;5054171;28;20399;-60
2022/08/21 03:34:31;;;;;;;12.63;6.28;;;;;;;;;;5036848;28;20041;-60
2022/08/21 03:36:57;;;;;;;11.13;6.13;;;;;;;;;;5036740;28;20497;-60
2022/08/21 03:39:23;;;;;;;10.95;5.05;;;;;;;;;;5053781;28;20045;-60
2022/08/21 03:41:49;;;;;;;13.90;5.60;;;;;;;;;;5054433;28;20037;-60
2022/08/21 03:44:15;;;;;;;9.10;5.93;;;;;;;;;;5020326;28;20052;-59
2022/08/21 03:46:41;;;;;;;10.98;5.72;;;;;;;;;;5053540;28;20076;-60
2022/08/21 03:49:07;;;;;;;10.63;6.40;;;;;;;;;;5054456;28;20318;-60
2022/08/21 03:51:35;;;;;;;12.88;6.70;;;;;;;;;;5054417;28;20045;-60
2022/08/21 03:54:01;;;;;;;13.35;6.07;;;;;;;;;;5052938;28;20049;-59
2022/08/21 03:56:27;;;;;;;11.73;6.95;;;;;;;;;;5020095;28;20545;-60
2022/08/21 03:58:53;;;;;;;12.80;6.00;;;;;;;;;;5036479;28;20029;-60
2022/08/21 04:01:19;;;;;;;11.10;6.05;;;;;;;;;;5035922;28;20517;-60
2022/08/21 04:03:45;;;;;;;11.65;5.80;;;;;;;;;;5035763;28;20045;-60
2022/08/21 04:06:11;;;;;;;10.93;6.72;;;;;;;;;;5054577;28;20052;-60
2022/08/21 04:08:37;;;;;;;12.32;6.57;;;;;;;;;;5035347;28;20103;-60
2022/08/21 04:11:04;;;;;;;13.35;6.55;;;;;;;;;;5053895;28;20186;-60
2022/08/21 04:13:30;;;;;;;15.00;7.35;;;;;;;;;;5035799;28;20125;-60
2022/08/21 04:15:58;;;;;;;11.77;5.95;;;;;;;;;;5052962;28;20083;-60
2022/08/21 04:18:24;;;;;;;14.15;6.38;;;;;;;;;;5036130;28;20080;-59
2022/08/21 04:20:51;;;;;;;14.02;5.72;;;;;;;;;;5053873;28;20064;-59
2022/08/21 04:23:21;;;;;;;10.48;5.72;;;;;;;;;;5035356;28;20521;-59
2022/08/21 04:25:47;;;;;;;11.98;6.57;;;;;;;;;;5035466;28;20063;-60
2022/08/21 04:28:13;;;;;;;11.10;5.93;;;;;;;;;;5053065;28;20049;-60
2022/08/21 04:30:39;;;;;;;12.57;6.95;;;;;;;;;;5035621;28;20508;-60
2022/08/21 04:33:05;;;;;;;11.27;6.20;;;;;;;;;;5035437;28;20083;-60
2022/08/21 04:35:31;;;;;;;18.52;6.57;;;;;;;;;;5035161;28;20063;-60
2022/08/21 04:37:57;;;;;;;14.98;6.20;;;;;;;;;;5053431;28;20045;-60
2022/08/21 04:40:25;;;;;;;10.88;5.80;;;;;;;;;;5053344;28;20502;-60
2022/08/21 04:43:11;;;;;;;10.18;6.10;;;;;;;;;;5052365;28;20033;-60
2022/08/21 04:45:39;;;;;;;15.02;6.65;;;;;;;;;;5053365;28;20122;-59
2022/08/21 04:48:06;;;;;;;10.68;6.80;;;;;;;;;;5053208;28;20051;-60
2022/08/21 04:50:35;;;;;;;9.90;5.97;;;;;;;;;;5034651;28;20044;-60
2022/08/21 04:53:01;;;;;;;13.05;6.72;;;;;;;;;;5035019;28;20052;-60
2022/08/21 04:55:28;;;;;;;12.98;7.15;;;;;;;;;;5052915;28;20489;-60
2022/08/21 04:57:55;;;;;;;10.45;6.78;;;;;;;;;;5052326;28;20048;-60
2022/08/21 05:00:24;;;;;;;11.90;5.97;;;;;;;;;;5053376;28;20099;-60
2022/08/21 05:02:54;;;;;;;13.35;6.82;;;;;;;;;;5052737;28;20134;-60
2022/08/21 05:05:20;;;;;;;13.05;6.40;;;;;;;;;;5051687;28;20044;-60
2022/08/21 05:07:47;;;;;;;13.93;6.35;;;;;;;;;;5034881;28;20482;-60
2022/08/21 05:10:14;;;;;;;10.75;6.82;;;;;;;;;;5052644;28;20037;-60
2022/08/21 05:12:42;;;;;;;13.90;6.07;;;;;;;;;;5052722;28;20393;-60
2022/08/21 05:15:09;;;;;;;17.85;6.75;;;;;;;;;;5018558;28;20441;-59
2022/08/21 05:17:35;;;;;;;11.57;5.85;;;;;;;;;;5051926;28;20044;-59
2022/08/21 05:20:01;;;;;;;10.02;6.38;;;;;;;;;;5052675;28;20470;-59
2022/08/21 05:22:27;;;;;;;10.57;5.60;;;;;;;;;;5034753;28;20442;-60
2022/08/21 05:24:53;;;;;;;11.68;6.03;;;;;;;;;;5033757;28;20051;-60
2022/08/21 05:27:19;;;;;;;10.80;6.20;;;;;;;;;;5034773;28;20053;-60
2022/08/21 05:29:45;;;;;;;13.18;7.28;;;;;;;;;;5034353;28;20076;-60
2022/08/21 05:32:12;;;;;;;11.93;6.88;;;;;;;;;;5034231;28;20076;-60
2022/08/21 05:34:38;;;;;;;11.80;5.55;;;;;;;;;;5034373;28;20371;-60
2022/08/21 05:37:04;;;;;;;15.35;7.05;;;;;;;;;;5034511;28;20642;-60
2022/08/21 05:39:31;;;;;;;13.20;5.93;;;;;;;;;;5051632;28;20063;-60
2022/08/21 05:41:57;;;;;;;11.13;6.18;;;;;;;;;;5052382;28;20033;-60
2022/08/21 05:44:23;;;;;;;10.52;6.47;;;;;;;;;;5034374;28;20119;-60
2022/08/21 05:46:49;;;;;;;11.68;6.18;;;;;;;;;;5033450;28;20048;-60
2022/08/21 05:49:15;;;;;;;11.00;6.15;;;;;;;;;;5052346;28;20041;-60
2022/08/21 05:51:41;;;;;;;10.52;5.75;;;;;;;;;;5051973;28;20041;-60
2022/08/21 05:54:08;;;;;;;12.75;5.95;;;;;;;;;;5033473;28;20472;-60
2022/08/21 05:56:34;;;;;;;11.25;5.85;;;;;;;;;;5052076;28;20048;-60
2022/08/21 05:59:00;;;;;;;11.27;6.82;;;;;;;;;;5034364;28;20045;-60
2022/08/21 06:01:27;;;;;;;10.88;6.47;;;;;;;;;;5051231;28;20033;-60
2022/08/21 06:03:53;;;;;;;12.07;5.05;;;;;;;;;;5034099;28;20513;-59
2022/08/21 06:06:19;;;;;;;8.82;5.53;;;;;;;;;;5052046;28;20504;-60
2022/08/21 06:08:45;;;;;;;11.45;6.25;;;;;;;;;;5050781;28;20037;-60
2022/08/21 06:11:17;;;;;;;11.73;6.38;;;;;;;;;;5052258;28;20083;-60
2022/08/21 06:13:43;;;;;;;11.05;5.70;;;;;;;;;;5033177;28;20049;-59
2022/08/21 06:16:12;;;;;;;10.80;6.43;;;;;;;;;;5051799;28;20497;-60
2022/08/21 06:18:38;;;;;;;17.25;6.20;;;;;;;;;;5032052;28;20056;-60
2022/08/21 06:21:04;;;;;;;11.93;6.05;;;;;;;;;;5049885;28;20064;-60
2022/08/21 06:23:30;;;;;;;13.32;6.65;;;;;;;;;;5051557;28;20052;-60
2022/08/21 06:25:56;;;;;;;15.07;5.68;;;;;;;;;;5052748;28;20056;-60
2022/08/21 06:28:22;;;;;;;15.20;6.50;;;;;;;;;;5052996;28;20106;-60
2022/08/21 06:30:48;;;;;;;11.82;5.57;;;;;;;;;;5071742;28;20043;-60
2022/08/21 06:33:15;;;;;;;10.95;6.05;;;;;;;;;;5053999;28;20238;-60
2022/08/21 06:35:41;;;;;;;11.48;5.70;;;;;;;;;;5036555;28;20389;-60
2022/08/21 06:38:07;;;;;;;12.15;5.90;;;17.20;99.90;;;;;;5026952;28;20393;-60
2022/08/21 06:40:33;;;;;;;13.98;6.47;;;17.50;99.90;;;;;;5046818;28;20055;-59
2022/08/21 06:43:05;;;;;;;12.82;6.53;;;17.50;99.90;;;;;;5032310;28;20470;-59
2022/08/21 06:45:31;;;;;;;13.10;5.80;;;;;;;;;;5050839;28;20048;-60
2022/08/21 06:47:57;;;;;;;12.25;5.43;;;;;;;;;;5052451;28;20076;-60
2022/08/21 06:50:23;;;;;;;14.32;6.03;;;;;;;;;;5032693;28;20081;-60
2022/08/21 06:52:49;;;;;;;13.43;5.18;;;18.10;99.90;;;;;;5051405;28;20511;-60
2022/08/21 06:55:15;;;;;;;15.82;5.35;;;;;;;;;;5050828;28;20119;-61
2022/08/21 06:57:41;;;;;;;15.15;5.80;;;;;;;;;;5032019;28;20087;-60
2022/08/21 07:00:09;;;;;;;13.23;5.05;;;;;;;;;;5048608;28;20037;-60
2022/08/21 07:02:35;;;;;;;8.68;4.85;;;;;;;;;;5034523;28;20488;-60
2022/08/21 07:05:01;;;;;;;10.18;4.75;;;;;;;;;;5057411;28;20048;-59
2022/08/21 07:07:27;;;;;;;13.35;5.35;;;18.10;99.90;;;;;;5049161;28;20045;-60
2022/08/21 07:09:52;;;;;;;11.52;4.57;;;18.40;99.90;;;;;;5031718;28;20545;-60
2022/08/21 07:12:19;;;;;;;9.82;4.88;;;;;;;;;;5031069;28;20049;-60
2022/08/21 07:14:45;;;;;;;8.27;4.32;;;;;;;;;;5030820;28;20061;-60
2022/08/21 07:17:11;;;;;;;8.65;4.53;;;;;;;;;;5049689;28;20501;-60
2022/08/21 07:19:37;;;;;;;11.38;4.45;;;;;;;;;;5031088;28;20040;-60
2022/08/21 07:22:03;;;;;;;11.20;4.10;;;;;;;;;;5048979;28;20041;-59
2022/08/21 07:24:29;;;;;;;10.25;5.75;;;18.80;99.90;;;;;;5047939;28;20052;-61
2022/08/21 07:26:55;;;;;;;12.45;5.00;;;;;;;;;;5048734;28;20057;-60
2022/08/21 07:29:21;;;;;;;13.77;5.75;;;;;;;;;;5034019;28;20052;-60
2022/08/21 07:31:46;;;;;;;10.35;4.15;;;19.20;99.90;;;;;;5033927;28;20044;-60
2022/08/21 07:34:13;;;;;;;10.95;4.38;;;18.30;99.90;;;;;;5052593;28;20053;-60
2022/08/21 07:36:39;;;;;;;15.75;4.65;;;;;;;;;;5045257;28;20036;-60
2022/08/21 07:39:04;;;;;;;12.10;5.90;;;19.70;99.90;;;;;;5032353;28;20481;-60
2022/08/21 07:41:31;;;;;;;9.13;5.18;;;19.10;99.90;;;;;;5049771;28;20052;-60
2022/08/21 07:43:58;;;;;;;13.43;4.75;;;19.00;99.90;;;;;;5039803;28;20045;-60
2022/08/21 07:46:25;;;;;;;14.20;5.30;;;;;;;;;;5051033;28;20045;-60
2022/08/21 07:48:51;;;;;;;11.07;5.38;;;19.40;99.90;;;;;;5033072;28;20053;-60
2022/08/21 07:51:18;;;;;;;9.45;4.20;;;19.40;99.90;;;;;;5051931;28;20049;-60
2022/08/21 07:53:51;;;;;;;13.90;4.43;;;;;;;;;;5032421;28;20049;-60
2022/08/21 07:56:17;;;;;;;8.65;4.68;;;;;;;;;;5030860;28;20087;-60
2022/08/21 07:58:43;;;;;;;10.10;4.45;;;;;;;;;;5051324;28;20036;-60
2022/08/21 08:01:09;;;;;;;10.45;5.25;;;;;;;;;;5037481;28;20037;-60
2022/08/21 08:03:36;;;;;;;10.75;5.18;;;;;;;;;;5039555;28;20500;-60
2022/08/21 08:06:04;;;;;;;12.18;5.53;;;;;;;;;;5033068;28;20044;-60
2022/08/21 08:08:30;;;;;;;9.82;4.63;;;;;;;;;;5038031;28;20049;-60
2022/08/21 08:10:57;;;;;;;8.70;4.53;;;;;;;;;;5043469;28;20056;-60
2022/08/21 08:13:23;;;;;;;13.60;5.28;;;;;;;;;;5032076;28;20220;-60
2022/08/21 08:15:49;;;;;;;10.07;5.00;;;;;;;;;;5029497;28;20167;-61
2022/08/21 08:18:16;;;;;;;10.95;5.38;;;;;;;;;;5047859;28;20547;-60
2022/08/21 08:20:42;;;;;;;13.00;5.45;;;;;;;;;;5019741;28;20037;-60
2022/08/21 08:23:12;;;;;;;10.43;4.97;;;;;;;;;;5051093;28;20048;-60
2022/08/21 08:25:38;;;;;;;10.65;5.40;;;;;;;;;;5012895;28;20156;-61
2022/08/21 08:28:05;;;;;;;11.15;5.43;;;;;;;;;;5029079;28;20107;-60
2022/08/21 08:30:31;;;;;;;10.35;5.03;;;;;;;;;;5032180;28;20036;-61
2022/08/21 08:32:59;;;;;;;14.43;6.25;;;;;;;;;;5005380;28;20272;-60
2022/08/21 08:35:25;;;;;;;11.18;4.72;;;;;;;;;;5027623;28;20043;-60
2022/08/21 08:37:51;;;;;;;14.65;4.78;;;;;;;;;;5029129;28;20042;-60
2022/08/21 08:40:25;;;;;;;11.48;4.88;;;;;;;;;;5024600;28;20056;-60
2022/08/21 08:42:51;;;;;;;15.65;4.55;;;21.20;99.90;;;;;;5027307;28;20045;-60
2022/08/21 08:45:21;;;;;;;10.90;4.95;;;21.10;99.90;;;;;;5007656;28;20049;-61
2022/08/21 08:48:01;;;;;;;11.90;4.05;;;21.00;99.90;;;;;;5024822;28;20057;-61
2022/08/21 08:50:31;;;;;;;10.13;4.38;;;;;;;;;;5029654;28;20096;-60
2022/08/21 08:53:05;;;;;;;11.55;3.97;;;;;;;;;;5045920;28;20494;-61
2022/08/21 08:55:41;;;;;;;9.43;3.72;;;;;;;;;;5029975;28;20470;-61
2022/08/21 08:58:31;;;;;;;8.57;3.70;;;21.60;99.90;;;;;;5030066;28;20033;-61
2022/08/21 09:00:58;;;;;;;10.25;3.63;;;21.60;99.90;;;;;;5011692;28;20049;-61
2022/08/21 09:03:26;;;;;;;13.90;2.88;;;21.80;99.90;;;;;;5029058;28;20049;-61
2022/08/21 09:06:17;;;;;;;8.68;3.22;;;21.20;99.90;;;;;;5029368;28;20042;-60
2022/08/21 09:08:54;;;;;;;13.88;4.47;;;21.40;99.90;;;;;;5025236;28;20503;-61
2022/08/21 09:11:28;;;;;;;8.73;3.45;;;21.10;99.90;;;;;;5025671;28;20042;-60
2022/08/21 09:14:28;;;;;;;12.35;3.45;;;20.90;99.90;;;;;;5028982;28;20099;-60
2022/08/21 09:17:13;;;;;;;13.05;3.75;;;21.10;99.90;;;;;;5029064;28;20053;-61
2022/08/21 09:20:17;;;;;;;13.52;3.85;;;21.40;99.90;;;;;;5032193;28;20123;-60
2022/08/21 09:22:52;;;;;;;13.13;4.00;;;21.40;99.90;;;;;;5050194;28;20041;-60
2022/08/21 09:25:18;;;;;;;14.88;3.65;;;21.40;99.90;;;;;;5031629;28;20060;-61
2022/08/21 09:27:44;;;;;;;9.77;3.75;;;21.60;99.90;;;;;;5014038;28;20086;-61
2022/08/21 09:30:11;;;;;;;12.70;3.15;;;21.80;99.90;;;;;;5032383;28;20436;-61
2022/08/21 09:32:38;;;;;;;9.02;3.13;;;;;;;;;;5028046;28;20043;-61
2022/08/21 09:35:07;;;;;;;12.00;3.40;;;;;;;;;;5030513;28;20402;-60
2022/08/21 09:37:35;;;;;;;10.55;2.97;;;;;;;;;;5025580;28;20482;-61
2022/08/21 09:40:01;;;;;;;9.82;2.72;;;;;;;;;;5046110;28;20041;-61
2022/08/21 09:42:33;;;;;;;10.43;3.30;;;;;;;;;;5029749;28;20552;-61
2022/08/21 09:45:26;;;;;;;6.70;2.25;;;;;;;;;;5054657;28;20040;-61
2022/08/21 09:47:52;;;;;;;8.82;2.78;;;;;;;;;;5009199;28;20059;-61
2022/08/21 09:50:21;;;;;;;11.45;2.58;;;;;;;;;;5031530;28;20493;-61
2022/08/21 09:53:00;;;;;;;7.90;2.80;;;22.30;99.90;;;;;;5014315;28;20040;-60
2022/08/21 09:58:34;;;;;;;8.32;2.35;;;;;;;;;;5048100;28;20387;-60
2022/08/21 10:01:00;;;;;;;;;;;;;;;;;;5048557;28;20391;-60
2022/08/21 10:03:26;;;;;;;7.40;2.30;;;;;;;;;;5049024;28;19999;-60
2022/08/21 10:05:52;;;;;;;6.78;1.95;;;;;;;;;;5012342;28;20055;-60
2022/08/21 10:08:19;;;;;;;8.90;2.42;;;23.20;99.90;;;;;;5031238;28;20178;-61
2022/08/21 10:10:49;;;;;;;7.65;2.63;;;23.10;99.90;;;;;;5049153;28;20375;-61
2022/08/21 10:13:23;;;;;;;7.15;2.60;;;;;;;;;;5030860;28;20067;-61
2022/08/21 10:16:04;;;;;;;9.85;3.20;;;22.00;99.90;;;;;;5049276;28;20045;-60
2022/08/21 10:18:42;;;;;;;12.00;3.50;;;22.20;99.90;;;;;;5031431;28;20041;-61
2022/08/21 10:21:21;;;;;;;6.93;2.10;;;21.70;99.90;;;;;;5030556;28;20102;-61
2022/08/21 10:23:56;;;;;;;5.75;2.30;;;22.30;99.90;;;;;;5046409;28;20044;-60
2022/08/21 10:26:37;;;;;;;9.45;3.40;;;21.60;99.90;;;;;;5027719;28;20055;-60
2022/08/21 10:29:43;;;;;;;6.88;2.30;;;21.80;99.90;;;;;;5028961;28;20042;-61
2022/08/21 10:32:51;;;;;;;6.43;1.90;;;22.20;99.90;;;;;;5023159;28;20045;-61
2022/08/21 10:35:36;;;;;;;10.23;2.40;;;;;;;;;;5024131;28;20183;-61
2022/08/21 10:38:21;;;;;;;10.38;2.97;;;;;;;;;;5022598;28;20377;-60
2022/08/21 10:41:05;;;;;;;7.88;2.63;;;;;;;;;;5023188;28;20570;-61
2022/08/21 10:43:34;;;;;;;7.75;2.35;;;;;;;;;;5023249;28;20046;-60
2022/08/21 10:46:00;;;;;;;6.35;2.05;;;;;;;;;;5021499;28;20041;-60
2022/08/21 10:48:26;;;;;;;7.53;2.47;;;;;;;;;;5028171;28;20045;-61
2022/08/21 10:51:18;;;;;;;7.07;2.22;;;;;;;;;;5011826;28;20045;-60
2022/08/21 10:53:44;;;;;;;6.85;2.33;;;;;;;;;;5023703;28;20106;-60
2022/08/21 10:56:13;;;;;;;8.32;2.55;;;;;;;;;;5024377;28;20503;-60
2022/08/21 10:58:50;;;;;;;8.10;2.47;;;;;;;;;;5026831;28;20449;-60
2022/08/21 11:01:35;;;;;;;9.65;2.10;;;;;;;;;;5016261;28;20103;-60
2022/08/21 11:04:08;;;;;;;6.80;1.80;;;;;;;;;;5029709;28;20053;-61
2022/08/21 11:06:37;;;;;;;5.55;1.85;;;;;;;;;;5029287;28;20059;-61
2022/08/21 11:09:06;;;;;;;5.63;1.65;;;;;;;;;;5032685;28;20052;-61
2022/08/21 11:11:45;;;;;;;7.40;2.10;;;;;;;;;;5032386;28;20099;-61
2022/08/21 11:14:36;;;;;;;7.88;2.83;;;;;;;;;;5030831;28;20690;-61
2022/08/21 11:17:07;;;;;;;5.50;1.65;;;;;;;;;;5029956;28;20049;-61
2022/08/21 11:19:42;;;;;;;8.05;2.00;;;;;;;;;;5031283;28;20631;-61
2022/08/21 11:22:26;;;;;;;6.40;1.63;;;;;;;;;;5032057;28;20048;-61
2022/08/21 11:24:58;;;;;;;5.75;1.92;;;;;;;;;;5030418;28;20128;-61
2022/08/21 11:27:37;;;;;;;6.03;2.10;;;;;;;;;;5052043;28;20199;-61
2022/08/21 11:30:04;;;;;;;5.60;1.80;;;;;;;;;;5034004;28;21037;-60
2022/08/21 11:32:33;;;;;;;4.18;1.38;;;;;;;;;;5034494;28;20044;-60
2022/08/21 11:35:03;;;;;;;6.63;1.60;;;;;;;;;;5015144;28;20106;-60
2022/08/21 11:37:35;;;;;;;5.85;1.88;;;;;;;;;;5037491;28;20107;-60
2022/08/21 11:40:04;;;;;;;5.03;1.85;;;;;;;;;;5034494;28;20814;-60
2022/08/21 11:42:36;;;;;;;7.72;2.38;;;;;;;;;;5049911;28;20043;-61
2022/08/21 11:45:20;;;;;;;7.85;2.50;;;;;;;;;;5057383;28;20543;-61
2022/08/21 11:47:53;;;;;;;7.50;2.35;;;;;;;;;;5036817;28;20040;-61
2022/08/21 11:50:23;;;;;;;9.10;1.98;;;;;;;;;;5044307;28;20052;-61
2022/08/21 11:52:51;;;;;;;6.63;2.22;;;;;;;;;;5051018;28;20405;-61
2022/08/21 11:55:19;;;;;;;5.60;1.77;;;;;;;;;;5051152;28;20048;-61
2022/08/21 11:57:45;;;;;;;5.70;2.17;;;;;;;;;;5016436;28;20037;-61
2022/08/21 12:00:16;;;;;;;5.93;1.98;;;;;;;;;;5050712;28;20044;-61
2022/08/21 12:02:50;;;;;;;7.22;2.05;;;;;;;;;;5051486;28;20477;-61
2022/08/21 12:05:25;;;;;;;6.00;1.90;;;;;;;;;;5050731;28;20051;-61
2022/08/21 12:08:00;;;;;;;7.13;1.70;;;;;;;;;;5042853;28;20076;-61
2022/08/21 12:10:33;;;;;;;7.90;1.77;;;;;;;;;;5033201;28;20513;-61
2022/08/21 12:13:08;;;;;;;7.53;1.92;;;;;;;;;;5022203;28;20065;-61
2022/08/21 12:15:34;;;;;;;8.10;1.75;;;;;;;;;;5059525;28;20106;-61
2022/08/21 12:18:05;;;;;;;8.23;2.45;;;;;;;;;;5031396;28;20124;-62
2022/08/21 12:20:34;;;;;;;8.95;2.10;;;;;;;;;;5029656;28;20408;-61
2022/08/21 12:23:05;;;;;;;6.22;1.90;;;;;;;;;;5023642;28;20048;-61
2022/08/21 12:25:39;;;;;;;9.50;2.42;;;;;;;;;;5049197;28;20136;-60
2022/08/21 12:28:10;;;;;;;6.85;1.75;;;;;;;;;;5029094;28;20118;-60
2022/08/21 12:30:40;;;;;;;10.90;2.75;;;;;;;;;;5050385;28;20462;-60
2022/08/21 12:33:18;;;;;;;5.07;2.28;;;;;;;;;;5031756;28;20044;-60
2022/08/21 12:35:45;;;;;;;7.18;2.20;;;;;;;;;;5048654;28;20099;-61
2022/08/21 12:38:16;;;;;;;9.43;2.15;;;;;;;;;;5033009;28;20047;-60
2022/08/21 12:40:43;;;;;;;7.30;2.08;;;;;;;;;;5031171;28;20047;-60
2022/08/21 12:43:18;;;;;;;6.15;2.20;;;;;;;;;;5031885;28;20099;-60
2022/08/21 12:45:46;;;;;;;5.75;1.85;;;;;;;;;;5032007;28;20041;-60
2022/08/21 12:48:25;;;;;;;5.32;1.80;;;;;;;;;;5030392;28;20440;-60
2022/08/21 12:50:56;;;;;;;7.15;2.45;;;;;;;;;;5048724;28;20029;-61
2022/08/21 12:53:34;;;;;;;7.00;2.17;;;;;;;;;;5011632;28;20072;-61
2022/08/21 12:56:08;;;;;;;6.00;2.00;;;;;;;;;;5030315;28;20052;-61
2022/08/21 12:58:34;;;;;;;;;;;;;;;;;;5038059;28;20045;-60
2022/08/21 13:01:04;;;;;;;6.18;2.25;;;;;;;;;;5049460;28;19921;-60
2022/08/21 13:03:31;;;;;;;7.35;2.35;;;;;;;;;;5031418;28;20553;-61
2022/08/21 13:05:57;;;;;;;6.85;1.98;;;;;;;;;;5031625;28;20527;-61
2022/08/21 13:08:25;;;;;;;6.63;1.85;;;;;;;;;;5049651;28;20041;-60
2022/08/21 13:10:57;;;;;;;7.22;1.70;;;;;;;;;;5030368;28;20044;-60
2022/08/21 13:13:25;;;;;;;6.07;1.80;;;;;;;;;;5031444;28;20045;-61
2022/08/21 13:15:57;;;;;;;6.50;2.25;;;;;;;;;;5048253;28;20147;-61
2022/08/21 13:18:24;;;;;;;7.00;1.88;;;;;;;;;;5030791;28;20387;-61
2022/08/21 13:20:51;;;;;;;5.90;1.50;;;;;;;;;;5049002;28;20102;-61
2022/08/21 13:23:28;;;;;;;6.97;1.90;;;;;;;;;;5033884;28;20037;-61
2022/08/21 13:25:54;;;;;;;7.15;2.50;;;;;;;;;;5027487;28;20057;-61
2022/08/21 13:28:21;;;;;;;4.13;1.30;;;;;;;;;;5032146;28;20404;-61
2022/08/21 13:30:49;;;;;;;7.22;2.22;;;;;;;;;;5029868;28;20056;-61
2022/08/21 13:33:17;;;;;;;6.43;1.75;;;;;;;;;;5031600;28;20512;-61
2022/08/21 13:36:02;;;;;;;6.03;1.77;;;;;;;;;;5030892;28;20060;-61
2022/08/21 13:38:30;;;;;;;6.88;1.70;;;;;;;;;;5014376;28;20032;-61
2022/08/21 13:40:58;;;;;;;5.85;1.92;;;;;;;;;;5047123;28;20175;-61
2022/08/21 13:43:35;;;;;;;8.32;1.60;;;;;;;;;;5031773;28;20113;-61
2022/08/21 13:46:02;;;;;;;6.40;1.50;;;;;;;;;;5048541;28;20398;-61
2022/08/21 13:48:30;;;;;;;6.70;2.30;;;;;;;;;;5031633;28;20040;-61
2022/08/21 13:50:57;;;;;;;6.30;1.55;;;;;;;;;;5048758;28;20505;-61
2022/08/21 13:53:33;;;;;;;5.30;1.80;;;;;;;;;;5031828;28;20561;-61
2022/08/21 13:56:00;;;;;;;5.82;1.77;;;;;;;;;;5031296;28;20402;-61
2022/08/21 13:58:27;;;;;;;6.82;1.75;;;;;;;;;;5030826;28;20044;-61
2022/08/21 14:00:54;;;;;;;9.50;2.22;;;;;;;;;;5006985;28;20363;-61
2022/08/21 14:03:31;;;;;;;4.95;1.85;;;;;;;;;;5029619;28;20095;-61
2022/08/21 14:05:58;;;;;;;5.93;1.70;;;;;;;;;;5014672;28;20127;-61
2022/08/21 14:08:27;;;;;;;5.05;1.67;;;;;;;;;;5049181;28;20091;-61
2022/08/21 14:10:53;;;;;;;6.05;1.60;;;;;;;;;;5049053;28;20044;-61
2022/08/21 14:13:37;;;;;;;6.25;2.17;;;;;;;;;;5043108;28;20052;-61
2022/08/21 14:16:04;;;;;;;8.30;1.90;;;;;;;;;;5047109;28;20041;-60
2022/08/21 14:18:30;;;;;;;5.20;1.75;;;;;;;;;;5030928;28;20040;-60
2022/08/21 14:21:09;;;;;;;6.35;2.33;;;;;;;;;;5030075;28;20508;-60
2022/08/21 14:23:36;;;;;;;6.85;1.80;;;;;;;;;;5022641;28;20053;-60
2022/08/21 14:26:03;;;;;;;5.97;1.45;;;;;;;;;;5043250;28;20103;-60
2022/08/21 14:28:35;;;;;;;6.68;1.70;;;;;;;;;;5013521;28;20091;-60
2022/08/21 14:31:30;;;;;;;6.95;1.77;;;;;;;;;;5030704;28;20088;-60
2022/08/21 14:33:57;;;;;;;9.07;1.88;;;;;;;;;;5016830;28;20057;-61
2022/08/21 14:36:23;;;;;;;6.97;1.65;;;;;;;;;;5029774;28;20044;-61